sensor_id;sensor_type;location;lat;lon;timestamp;pressure;altitude;pressure_sealevel;temperature;humidity
4012;BME280;2020;48.682;9.024;2023-05-09T00:01:11;96732.06;;;12.38;100.00
4012;BME280;2020;48.682;9.024;2023-05-09T00:03:40;96728.78;;;12.36;100.00
4012;BME280;2020;48.682;9.024;2023-05-09T00:06:07;96727.47;;;12.32;100.00
4012;BME280;2020;48.682;9.024;2023-05-09T00:08:33;96722.25;;;12.32;100.00
4012;BME280;2020;48.682;9.024;2023-05-09T00:10:58;96725.50;;;12.34;100.00
4012;BME280;2020;48.682;9.024;2023-05-09T00:13:24;96722.56;;;12.28;100.00
4012;BME280;2020;48.682;9.024;2023-05-09T00:15:49;96731.69;;;12.24;100.00
4012;BME280;2020;48.682;9.024;2023-05-09T00:18:18;96718.00;;;12.22;100.00
4012;BME280;2020;48.682;9.024;2023-05-09T00:20:43;96719.63;;;12.23;100.00
4012;BME280;2020;48.682;9.024;2023-05-09T00:23:08;96722.88;;;12.25;100.00
4012;BME280;2020;48.682;9.024;2023-05-09T00:25:34;96710.16;;;12.22;100.00
4012;BME280;2020;48.682;9.024;2023-05-09T00:27:59;96706.44;;;12.25;100.00
4012;BME280;2020;48.682;9.024;2023-05-09T00:30:24;96705.28;;;12.27;100.00
4012;BME280;2020;48.682;9.024;2023-05-09T00:32:50;96706.25;;;12.26;100.00
4012;BME280;2020;48.682;9.024;2023-05-09T00:35:15;96703.66;;;12.26;100.00
4012;BME280;2020;48.682;9.024;2023-05-09T00:37:40;96707.75;;;12.29;100.00
4012;BME280;2020;48.682;9.024;2023-05-09T00:40:06;96702.66;;;12.27;100.00
4012;BME280;2020;48.682;9.024;2023-05-09T00:42:33;96691.25;;;12.28;100.00
4012;BME280;2020;48.682;9.024;2023-05-09T00:44:59;96697.31;;;12.29;100.00
4012;BME280;2020;48.682;9.024;2023-05-09T00:47:26;96688.66;;;12.28;100.00
4012;BME280;2020;48.682;9.024;2023-05-09T00:49:52;96686.03;;;12.28;100.00
4012;BME280;2020;48.682;9.024;2023-05-09T00:52:18;96688.66;;;12.28;100.00
4012;BME280;2020;48.682;9.024;2023-05-09T00:54:50;96686.88;;;12.29;100.00
4012;BME280;2020;48.682;9.024;2023-05-09T00:57:16;96692.25;;;12.36;100.00
4012;BME280;2020;48.682;9.024;2023-05-09T00:59:41;96684.06;;;12.31;100.00
4012;BME280;2020;48.682;9.024;2023-05-09T01:02:06;96688.31;;;12.32;100.00
4012;BME280;2020;48.682;9.024;2023-05-09T01:04:32;96677.22;;;12.29;100.00
4012;BME280;2020;48.682;9.024;2023-05-09T01:07:29;96683.75;;;12.34;100.00
4012;BME280;2020;48.682;9.024;2023-05-09T01:10:03;96678.22;;;12.37;100.00
4012;BME280;2020;48.682;9.024;2023-05-09T01:18:00;96677.88;;;12.23;100.00
4012;BME280;2020;48.682;9.024;2023-05-09T01:26:02;96673.97;;;12.27;100.00
4012;BME280;2020;48.682;9.024;2023-05-09T01:31:22;96673.63;;;12.31;100.00
4012;BME280;2020;48.682;9.024;2023-05-09T01:33:53;96661.56;;;12.29;100.00
4012;BME280;2020;48.682;9.024;2023-05-09T01:36:21;96665.00;;;12.30;100.00
4012;BME280;2020;48.682;9.024;2023-05-09T01:38:49;96659.63;;;12.32;100.00
4012;BME280;2020;48.682;9.024;2023-05-09T01:41:16;96647.53;;;12.31;100.00
4012;BME280;2020;48.682;9.024;2023-05-09T01:43:44;96656.34;;;12.29;100.00
4012;BME280;2020;48.682;9.024;2023-05-09T01:46:11;96649.69;;;12.35;100.00
4012;BME280;2020;48.682;9.024;2023-05-09T01:48:38;96649.50;;;12.28;100.00
4012;BME280;2020;48.682;9.024;2023-05-09T01:51:05;96652.94;;;12.21;100.00
4012;BME280;2020;48.682;9.024;2023-05-09T01:53:32;96648.19;;;12.24;100.00
4012;BME280;2020;48.682;9.024;2023-05-09T01:55:59;96637.59;;;12.18;100.00
4012;BME280;2020;48.682;9.024;2023-05-09T01:58:26;96647.06;;;12.19;100.00
4012;BME280;2020;48.682;9.024;2023-05-09T02:00:52;96652.41;;;12.17;100.00
4012;BME280;2020;48.682;9.024;2023-05-09T02:03:17;96654.38;;;12.15;100.00
4012;BME280;2020;48.682;9.024;2023-05-09T02:05:44;96655.84;;;12.09;100.00
4012;BME280;2020;48.682;9.024;2023-05-09T02:08:11;96658.59;;;12.08;100.00
4012;BME280;2020;48.682;9.024;2023-05-09T02:10:37;96656.16;;;12.06;100.00
4012;BME280;2020;48.682;9.024;2023-05-09T02:13:03;96645.88;;;12.05;100.00
4012;BME280;2020;48.682;9.024;2023-05-09T02:15:29;96646.84;;;12.04;100.00
4012;BME280;2020;48.682;9.024;2023-05-09T02:17:54;96645.22;;;12.03;100.00
4012;BME280;2020;48.682;9.024;2023-05-09T02:20:20;96657.81;;;12.07;100.00
4012;BME280;2020;48.682;9.024;2023-05-09T02:22:46;96645.22;;;12.03;100.00
4012;BME280;2020;48.682;9.024;2023-05-09T02:25:12;96651.41;;;12.02;100.00
4012;BME280;2020;48.682;9.024;2023-05-09T02:27:43;96645.22;;;12.03;100.00
4012;BME280;2020;48.682;9.024;2023-05-09T02:30:13;96640.00;;;12.03;100.00
4012;BME280;2020;48.682;9.024;2023-05-09T02:32:42;96638.97;;;11.95;100.00
4012;BME280;2020;48.682;9.024;2023-05-09T02:35:09;96642.56;;;11.94;100.00
4012;BME280;2020;48.682;9.024;2023-05-09T02:37:36;96647.78;;;11.94;100.00
4012;BME280;2020;48.682;9.024;2023-05-09T02:40:01;96644.84;;;11.97;100.00
4012;BME280;2020;48.682;9.024;2023-05-09T02:42:27;96639.16;;;11.94;100.00
4012;BME280;2020;48.682;9.024;2023-05-09T02:44:54;96633.09;;;11.93;100.00
4012;BME280;2020;48.682;9.024;2023-05-09T02:47:20;96628.34;;;11.89;100.00
4012;BME280;2020;48.682;9.024;2023-05-09T02:49:46;96631.78;;;11.89;100.00
4012;BME280;2020;48.682;9.024;2023-05-09T02:52:12;96625.25;;;11.77;100.00
4012;BME280;2020;48.682;9.024;2023-05-09T02:54:37;96624.28;;;11.78;100.00
4012;BME280;2020;48.682;9.024;2023-05-09T02:57:03;96620.69;;;11.79;100.00
4012;BME280;2020;48.682;9.024;2023-05-09T02:59:28;96613.00;;;11.77;100.00
4012;BME280;2020;48.682;9.024;2023-05-09T03:01:54;96614.81;;;11.77;100.00
4012;BME280;2020;48.682;9.024;2023-05-09T03:04:19;96616.44;;;11.78;100.00
4012;BME280;2020;48.682;9.024;2023-05-09T03:06:44;96617.56;;;11.75;100.00
4012;BME280;2020;48.682;9.024;2023-05-09T03:09:09;96611.56;;;11.75;100.00
4012;BME280;2020;48.682;9.024;2023-05-09T03:11:35;96619.72;;;11.80;100.00
4012;BME280;2020;48.682;9.024;2023-05-09T03:14:03;96614.50;;;11.80;100.00
4012;BME280;2020;48.682;9.024;2023-05-09T03:16:29;96617.44;;;11.77;100.00
4012;BME280;2020;48.682;9.024;2023-05-09T03:18:55;96609.59;;;11.77;100.00
4012;BME280;2020;48.682;9.024;2023-05-09T03:21:20;96615.63;;;11.77;100.00
4012;BME280;2020;48.682;9.024;2023-05-09T03:23:46;96620.03;;;11.77;100.00
4012;BME280;2020;48.682;9.024;2023-05-09T03:26:11;96615.63;;;11.77;100.00
4012;BME280;2020;48.682;9.024;2023-05-09T03:28:37;96616.78;;;11.75;100.00
4012;BME280;2020;48.682;9.024;2023-05-09T03:31:03;96612.00;;;11.62;100.00
4012;BME280;2020;48.682;9.024;2023-05-09T03:33:28;96602.09;;;11.65;100.00
4012;BME280;2020;48.682;9.024;2023-05-09T03:35:54;96600.41;;;11.56;100.00
4012;BME280;2020;48.682;9.024;2023-05-09T03:38:19;96600.41;;;11.48;100.00
4012;BME280;2020;48.682;9.024;2023-05-09T03:40:48;96594.88;;;11.51;100.00
4012;BME280;2020;48.682;9.024;2023-05-09T03:43:13;96598.94;;;11.53;100.00
4012;BME280;2020;48.682;9.024;2023-05-09T03:45:38;96589.34;;;11.54;100.00
4012;BME280;2020;48.682;9.024;2023-05-09T03:48:04;96589.03;;;11.57;100.00
4012;BME280;2020;48.682;9.024;2023-05-09T03:50:32;96591.63;;;11.57;100.00
4012;BME280;2020;48.682;9.024;2023-05-09T03:52:57;96590.66;;;11.58;100.00
4012;BME280;2020;48.682;9.024;2023-05-09T03:55:23;96594.22;;;11.57;100.00
4012;BME280;2020;48.682;9.024;2023-05-09T03:57:48;96585.25;;;11.51;100.00
4012;BME280;2020;48.682;9.024;2023-05-09T04:00:13;96593.06;;;11.51;100.00
4012;BME280;2020;48.682;9.024;2023-05-09T04:02:40;96595.84;;;11.50;100.00
4012;BME280;2020;48.682;9.024;2023-05-09T04:05:05;96593.25;;;11.50;100.00
4012;BME280;2020;48.682;9.024;2023-05-09T04:07:30;96595.66;;;11.51;100.00
4012;BME280;2020;48.682;9.024;2023-05-09T04:09:56;96590.47;;;11.51;100.00
4012;BME280;2020;48.682;9.024;2023-05-09T04:12:21;96589.81;;;11.49;100.00
4012;BME280;2020;48.682;9.024;2023-05-09T04:14:46;96584.25;;;11.44;100.00
4012;BME280;2020;48.682;9.024;2023-05-09T04:17:11;96602.34;;;11.46;100.00
4012;BME280;2020;48.682;9.024;2023-05-09T04:19:37;96592.09;;;11.52;100.00
4012;BME280;2020;48.682;9.024;2023-05-09T04:22:02;96588.69;;;11.52;100.00
4012;BME280;2020;48.682;9.024;2023-05-09T04:24:27;96594.69;;;11.52;100.00
4012;BME280;2020;48.682;9.024;2023-05-09T04:26:53;96591.28;;;11.52;100.00
4012;BME280;2020;48.682;9.024;2023-05-09T04:29:18;96593.72;;;11.53;100.00
4012;BME280;2020;48.682;9.024;2023-05-09T04:31:43;96590.31;;;11.53;100.00
4012;BME280;2020;48.682;9.024;2023-05-09T04:34:08;96589.34;;;11.54;100.00
4012;BME280;2020;48.682;9.024;2023-05-09T04:36:34;96593.41;;;11.56;100.00
4012;BME280;2020;48.682;9.024;2023-05-09T04:38:59;96595.88;;;11.58;100.00
4012;BME280;2020;48.682;9.024;2023-05-09T04:41:24;96593.56;;;11.47;100.00
4012;BME280;2020;48.682;9.024;2023-05-09T04:43:50;96593.88;;;11.44;100.00
4012;BME280;2020;48.682;9.024;2023-05-09T04:46:16;96596.47;;;11.44;100.00
4012;BME280;2020;48.682;9.024;2023-05-09T04:48:41;96601.38;;;11.47;100.00
4012;BME280;2020;48.682;9.024;2023-05-09T04:51:07;96595.63;;;11.35;100.00
4012;BME280;2020;48.682;9.024;2023-05-09T04:53:32;96588.97;;;11.40;100.00
4012;BME280;2020;48.682;9.024;2023-05-09T04:55:58;96590.91;;;11.38;100.00
4012;BME280;2020;48.682;9.024;2023-05-09T04:58:23;96590.59;;;11.41;100.00
4012;BME280;2020;48.682;9.024;2023-05-09T05:00:50;96586.41;;;11.49;100.00
4012;BME280;2020;48.682;9.024;2023-05-09T05:03:15;96583.94;;;11.47;100.00
4012;BME280;2020;48.682;9.024;2023-05-09T05:05:42;96585.06;;;11.45;100.00
4012;BME280;2020;48.682;9.024;2023-05-09T05:08:07;96585.25;;;11.51;100.00
4012;BME280;2020;48.682;9.024;2023-05-09T05:10:32;96581.88;;;11.59;100.00
4012;BME280;2020;48.682;9.024;2023-05-09T05:12:57;96581.22;;;11.65;100.00
4012;BME280;2020;48.682;9.024;2023-05-09T05:15:23;96584.81;;;11.64;100.00
4012;BME280;2020;48.682;9.024;2023-05-09T05:17:48;96577.63;;;11.66;100.00
4012;BME280;2020;48.682;9.024;2023-05-09T05:20:13;96580.09;;;11.76;100.00
4012;BME280;2020;48.682;9.024;2023-05-09T05:22:38;96574.09;;;11.84;100.00
4012;BME280;2020;48.682;9.024;2023-05-09T05:25:04;96581.28;;;11.90;100.00
4012;BME280;2020;48.682;9.024;2023-05-09T05:27:30;96579.97;;;11.94;100.00
4012;BME280;2020;48.682;9.024;2023-05-09T05:29:55;96575.78;;;12.02;100.00
4012;BME280;2020;48.682;9.024;2023-05-09T05:32:20;96569.91;;;12.08;100.00
4012;BME280;2020;48.682;9.024;2023-05-09T05:34:45;96568.13;;;12.00;100.00
4012;BME280;2020;48.682;9.024;2023-05-09T05:37:11;96575.13;;;12.08;100.00
4012;BME280;2020;48.682;9.024;2023-05-09T05:39:36;96566.97;;;12.19;100.00
4012;BME280;2020;48.682;9.024;2023-05-09T05:42:01;96575.78;;;12.02;100.00
4012;BME280;2020;48.682;9.024;2023-05-09T05:44:27;96562.06;;;12.16;100.00
4012;BME280;2020;48.682;9.024;2023-05-09T05:46:52;96569.56;;;12.27;100.00
4012;BME280;2020;48.682;9.024;2023-05-09T05:49:17;96566.63;;;12.39;100.00
4012;BME280;2020;48.682;9.024;2023-05-09T05:51:43;96569.25;;;12.31;100.00
4012;BME280;2020;48.682;9.024;2023-05-09T05:54:08;96567.94;;;12.43;100.00
4012;BME280;2020;48.682;9.024;2023-05-09T05:56:33;96577.72;;;12.49;100.00
4012;BME280;2020;48.682;9.024;2023-05-09T05:58:59;96571.22;;;12.62;100.00
4012;BME280;2020;48.682;9.024;2023-05-09T06:01:24;96569.56;;;12.61;100.00
4012;BME280;2020;48.682;9.024;2023-05-09T06:03:49;96571.69;;;12.57;100.00
4012;BME280;2020;48.682;9.024;2023-05-09T06:06:19;96562.38;;;12.63;100.00
4012;BME280;2020;48.682;9.024;2023-05-09T06:08:46;96559.13;;;12.61;100.00
4012;BME280;2020;48.682;9.024;2023-05-09T06:11:11;96551.63;;;12.66;100.00
4012;BME280;2020;48.682;9.024;2023-05-09T06:13:36;96554.03;;;12.67;100.00
4012;BME280;2020;48.682;9.024;2023-05-09T06:16:01;96552.59;;;12.65;100.00
4012;BME280;2020;48.682;9.024;2023-05-09T06:18:27;96553.91;;;12.61;100.00
4012;BME280;2020;48.682;9.024;2023-05-09T06:20:53;96542.78;;;12.67;100.00
4012;BME280;2020;48.682;9.024;2023-05-09T06:23:18;96544.09;;;12.71;100.00
4012;BME280;2020;48.682;9.024;2023-05-09T06:25:46;96547.47;;;12.80;100.00
4012;BME280;2020;48.682;9.024;2023-05-09T06:28:11;96547.97;;;12.92;100.00
4012;BME280;2020;48.682;9.024;2023-05-09T06:30:37;96540.25;;;12.98;100.00
4012;BME280;2020;48.682;9.024;2023-05-09T06:33:02;96543.38;;;12.94;100.00
4012;BME280;2020;48.682;9.024;2023-05-09T06:35:27;96544.00;;;13.04;100.00
4012;BME280;2020;48.682;9.024;2023-05-09T06:37:52;96537.47;;;13.00;100.00
4012;BME280;2020;48.682;9.024;2023-05-09T06:40:18;96536.13;;;13.12;100.00
4012;BME280;2020;48.682;9.024;2023-05-09T06:42:43;96534.75;;;13.25;100.00
4012;BME280;2020;48.682;9.024;2023-05-09T06:45:09;96537.00;;;13.36;100.00
4012;BME280;2020;48.682;9.024;2023-05-09T06:47:34;96536.94;;;13.53;100.00
4012;BME280;2020;48.682;9.024;2023-05-09T06:50:00;96531.16;;;13.66;100.00
4012;BME280;2020;48.682;9.024;2023-05-09T06:52:25;96535.00;;;13.78;100.00
4012;BME280;2020;48.682;9.024;2023-05-09T06:54:50;96534.16;;;13.78;100.00
4012;BME280;2020;48.682;9.024;2023-05-09T06:57:16;96514.88;;;13.79;100.00
4012;BME280;2020;48.682;9.024;2023-05-09T06:59:41;96520.66;;;13.89;100.00
4012;BME280;2020;48.682;9.024;2023-05-09T07:02:08;96505.69;;;13.83;100.00
4012;BME280;2020;48.682;9.024;2023-05-09T07:04:34;96516.13;;;13.83;100.00
4012;BME280;2020;48.682;9.024;2023-05-09T07:06:59;96510.47;;;13.79;100.00
4012;BME280;2020;48.682;9.024;2023-05-09T07:09:25;96503.94;;;13.98;100.00
4012;BME280;2020;48.682;9.024;2023-05-09T07:11:53;96503.53;;;14.10;100.00
4012;BME280;2020;48.682;9.024;2023-05-09T07:14:18;96498.78;;;14.28;100.00
4012;BME280;2020;48.682;9.024;2023-05-09T07:16:44;96495.31;;;14.13;100.00
4012;BME280;2020;48.682;9.024;2023-05-09T07:19:11;96491.69;;;14.52;100.00
4012;BME280;2020;48.682;9.024;2023-05-09T07:21:36;96496.09;;;14.67;100.00
4012;BME280;2020;48.682;9.024;2023-05-09T07:24:01;96490.50;;;14.40;100.00
4012;BME280;2020;48.682;9.024;2023-05-09T07:26:27;96490.69;;;14.53;100.00
4012;BME280;2020;48.682;9.024;2023-05-09T07:28:52;96483.81;;;14.52;100.00
4012;BME280;2020;48.682;9.024;2023-05-09T07:31:17;96481.44;;;14.42;100.00
4012;BME280;2020;48.682;9.024;2023-05-09T07:33:43;96481.66;;;14.41;100.00
4012;BME280;2020;48.682;9.024;2023-05-09T07:36:08;96477.84;;;14.58;100.00
4012;BME280;2020;48.682;9.024;2023-05-09T07:38:37;96475.50;;;14.63;100.00
4012;BME280;2020;48.682;9.024;2023-05-09T07:41:03;96468.47;;;14.64;100.00
4012;BME280;2020;48.682;9.024;2023-05-09T07:43:28;96472.97;;;14.55;100.00
4012;BME280;2020;48.682;9.024;2023-05-09T07:45:53;96469.38;;;14.56;100.00
4012;BME280;2020;48.682;9.024;2023-05-09T07:48:19;96462.03;;;14.52;100.00
4012;BME280;2020;48.682;9.024;2023-05-09T07:50:44;96467.38;;;14.58;100.00
4012;BME280;2020;48.682;9.024;2023-05-09T07:53:09;96458.75;;;14.73;100.00
4012;BME280;2020;48.682;9.024;2023-05-09T07:55:35;96454.69;;;14.70;100.00
4012;BME280;2020;48.682;9.024;2023-05-09T07:58:00;96442.28;;;14.79;100.00
4012;BME280;2020;48.682;9.024;2023-05-09T08:00:25;96441.94;;;14.82;100.00
4012;BME280;2020;48.682;9.024;2023-05-09T08:02:51;96443.72;;;14.97;100.00
4012;BME280;2020;48.682;9.024;2023-05-09T08:05:17;96425.03;;;15.21;100.00
4012;BME280;2020;48.682;9.024;2023-05-09T08:07:42;96429.44;;;15.58;100.00
4012;BME280;2020;48.682;9.024;2023-05-09T08:10:08;96420.81;;;15.64;100.00
4012;BME280;2020;48.682;9.024;2023-05-09T08:12:33;96419.56;;;15.38;100.00
4012;BME280;2020;48.682;9.024;2023-05-09T08:14:59;96421.69;;;15.28;100.00
4012;BME280;2020;48.682;9.024;2023-05-09T08:17:24;96417.66;;;15.10;100.00
4012;BME280;2020;48.682;9.024;2023-05-09T08:19:49;96421.69;;;14.76;100.00
4012;BME280;2020;48.682;9.024;2023-05-09T08:22:16;96417.28;;;14.76;100.00
4012;BME280;2020;48.682;9.024;2023-05-09T08:24:42;96414.84;;;14.75;100.00
4012;BME280;2020;48.682;9.024;2023-05-09T08:27:07;96413.22;;;14.74;100.00
4012;BME280;2020;48.682;9.024;2023-05-09T08:29:33;96408.34;;;14.71;100.00
4012;BME280;2020;48.682;9.024;2023-05-09T08:31:58;96405.97;;;14.76;100.00
4012;BME280;2020;48.682;9.024;2023-05-09T08:34:23;96401.25;;;14.86;100.00
4012;BME280;2020;48.682;9.024;2023-05-09T08:36:49;96392.03;;;14.90;100.00
4012;BME280;2020;48.682;9.024;2023-05-09T08:39:14;96397.94;;;15.14;100.00
4012;BME280;2020;48.682;9.024;2023-05-09T08:41:40;96393.97;;;15.62;100.00
4012;BME280;2020;48.682;9.024;2023-05-09T08:44:06;96395.47;;;15.49;99.35
4012;BME280;2020;48.682;9.024;2023-05-09T08:46:37;96397.53;;;15.83;100.00
4012;BME280;2020;48.682;9.024;2023-05-09T08:49:05;96391.91;;;16.07;94.00
4012;BME280;2020;48.682;9.024;2023-05-09T08:51:34;96394.28;;;16.02;91.43
4012;BME280;2020;48.682;9.024;2023-05-09T08:54:00;96386.84;;;15.84;93.81
4012;BME280;2020;48.682;9.024;2023-05-09T08:56:25;96389.41;;;15.99;96.24
4012;BME280;2020;48.682;9.024;2023-05-09T08:58:52;96390.44;;;16.33;95.86
4012;BME280;2020;48.682;9.024;2023-05-09T09:01:18;96382.94;;;16.65;95.40
4012;BME280;2020;48.682;9.024;2023-05-09T09:03:45;96378.16;;;16.89;93.22
4012;BME280;2020;48.682;9.024;2023-05-09T09:06:13;96374.44;;;16.63;87.18
4012;BME280;2020;48.682;9.024;2023-05-09T09:08:40;96372.44;;;16.30;89.93
4012;BME280;2020;48.682;9.024;2023-05-09T09:11:05;96372.28;;;16.38;91.26
4012;BME280;2020;48.682;9.024;2023-05-09T09:13:35;96366.38;;;16.72;92.02
4012;BME280;2020;48.682;9.024;2023-05-09T09:16:02;96365.66;;;16.98;89.07
4012;BME280;2020;48.682;9.024;2023-05-09T09:18:31;96368.09;;;17.00;87.39
4012;BME280;2020;48.682;9.024;2023-05-09T09:21:09;96365.16;;;16.67;86.02
4012;BME280;2020;48.682;9.024;2023-05-09T09:23:38;96359.81;;;16.54;87.71
4012;BME280;2020;48.682;9.024;2023-05-09T09:26:03;96355.72;;;16.45;88.83
4012;BME280;2020;48.682;9.024;2023-05-09T09:28:29;96346.00;;;16.38;88.48
4012;BME280;2020;48.682;9.024;2023-05-09T09:30:54;96350.91;;;16.48;89.64
4012;BME280;2020;48.682;9.024;2023-05-09T09:33:21;96345.22;;;16.38;88.96
4012;BME280;2020;48.682;9.024;2023-05-09T09:35:51;96346.00;;;16.38;87.58
4012;BME280;2020;48.682;9.024;2023-05-09T09:38:18;96341.94;;;16.29;86.70
4012;BME280;2020;48.682;9.024;2023-05-09T09:43:15;96337.44;;;16.16;89.00
4012;BME280;2020;48.682;9.024;2023-05-09T09:45:40;96331.56;;;16.14;89.78
4012;BME280;2020;48.682;9.024;2023-05-09T09:48:06;96328.56;;;16.24;91.70
4012;BME280;2020;48.682;9.024;2023-05-09T09:50:31;96331.47;;;16.43;91.56
4012;BME280;2020;48.682;9.024;2023-05-09T09:52:57;96322.19;;;16.47;89.81
4012;BME280;2020;48.682;9.024;2023-05-09T09:55:24;96315.31;;;16.46;86.70
4012;BME280;2020;48.682;9.024;2023-05-09T09:57:50;96314.00;;;16.63;90.70
4012;BME280;2020;48.682;9.024;2023-05-09T10:00:17;96310.50;;;16.56;87.58
4012;BME280;2020;48.682;9.024;2023-05-09T10:05:17;96304.78;;;16.94;89.02
4012;BME280;2020;48.682;9.024;2023-05-09T10:07:42;96293.69;;;17.06;83.08
4012;BME280;2020;48.682;9.024;2023-05-09T10:10:08;96292.91;;;17.25;84.91
4012;BME280;2020;48.682;9.024;2023-05-09T10:12:35;96290.25;;;17.25;83.29
4012;BME280;2020;48.682;9.024;2023-05-09T10:15:03;96282.16;;;17.47;83.19
4012;BME280;2020;48.682;9.024;2023-05-09T10:17:31;96283.16;;;17.60;81.17
4012;BME280;2020;48.682;9.024;2023-05-09T10:20:01;96277.91;;;17.46;79.45
4012;BME280;2020;48.682;9.024;2023-05-09T10:22:29;96271.84;;;17.46;80.25
4012;BME280;2020;48.682;9.024;2023-05-09T10:25:05;96268.13;;;17.80;78.54
4012;BME280;2020;48.682;9.024;2023-05-09T10:27:34;96267.34;;;18.00;76.29
4012;BME280;2020;48.682;9.024;2023-05-09T10:30:08;96260.84;;;17.96;74.64
4012;BME280;2020;48.682;9.024;2023-05-09T10:33:12;96262.38;;;18.24;72.61
4012;BME280;2020;48.682;9.024;2023-05-09T10:35:44;96253.31;;;18.59;79.97
4012;BME280;2020;48.682;9.024;2023-05-09T10:38:11;96248.06;;;18.52;71.03
4012;BME280;2020;48.682;9.024;2023-05-09T10:40:37;96244.84;;;18.43;66.36
4012;BME280;2020;48.682;9.024;2023-05-09T10:43:04;96250.59;;;18.26;71.43
4012;BME280;2020;48.682;9.024;2023-05-09T10:45:31;96248.19;;;18.25;71.12
4012;BME280;2020;48.682;9.024;2023-05-09T10:47:57;96236.22;;;18.68;75.30
4012;BME280;2020;48.682;9.024;2023-05-09T10:50:23;96217.88;;;18.80;71.15
4012;BME280;2020;48.682;9.024;2023-05-09T10:55:54;96209.44;;;19.28;70.16
4012;BME280;2020;48.682;9.024;2023-05-09T10:58:33;96212.44;;;19.07;68.34
4012;BME280;2020;48.682;9.024;2023-05-09T11:01:03;96208.84;;;18.94;72.60
4012;BME280;2020;48.682;9.024;2023-05-09T11:03:52;96198.84;;;18.78;66.90
4012;BME280;2020;48.682;9.024;2023-05-09T11:17:08;96175.78;;;18.73;68.60
4012;BME280;2020;48.682;9.024;2023-05-09T11:24:50;96164.41;;;18.73;65.92
4012;BME280;2020;48.682;9.024;2023-05-09T11:27:22;96161.72;;;19.05;67.08
4012;BME280;2020;48.682;9.024;2023-05-09T11:29:56;96161.16;;;18.70;67.97
4012;BME280;2020;48.682;9.024;2023-05-09T11:32:53;96155.03;;;18.77;66.30
4012;BME280;2020;48.682;9.024;2023-05-09T11:35:21;96143.31;;;18.73;67.48
4012;BME280;2020;48.682;9.024;2023-05-09T11:37:50;96134.38;;;18.74;65.86
4012;BME280;2020;48.682;9.024;2023-05-09T11:40:20;96126.84;;;19.03;65.15
4012;BME280;2020;48.682;9.024;2023-05-09T11:42:48;96134.50;;;18.60;62.51
4012;BME280;2020;48.682;9.024;2023-05-09T11:45:16;96134.44;;;18.67;65.98
4012;BME280;2020;48.682;9.024;2023-05-09T11:47:41;96126.38;;;18.62;64.72
4012;BME280;2020;48.682;9.024;2023-05-09T11:50:08;96129.66;;;18.57;64.95
4012;BME280;2020;48.682;9.024;2023-05-09T11:52:34;96124.66;;;18.49;66.98
4012;BME280;2020;48.682;9.024;2023-05-09T11:55:00;96127.28;;;18.49;67.62
4012;BME280;2020;48.682;9.024;2023-05-09T11:57:26;96122.88;;;18.42;70.74
4012;BME280;2020;48.682;9.024;2023-05-09T11:59:52;96115.69;;;18.24;69.80
4012;BME280;2020;48.682;9.024;2023-05-09T12:02:17;96110.53;;;18.36;69.77
4012;BME280;2020;48.682;9.024;2023-05-09T12:04:43;96112.66;;;18.53;71.09
4012;BME280;2020;48.682;9.024;2023-05-09T12:07:10;96113.03;;;18.56;69.88
4012;BME280;2020;48.682;9.024;2023-05-09T12:09:35;96100.72;;;18.76;70.02
4012;BME280;2020;48.682;9.024;2023-05-09T12:12:08;96094.41;;;18.51;69.27
4012;BME280;2020;48.682;9.024;2023-05-09T12:14:35;96100.28;;;18.53;70.02
4012;BME280;2020;48.682;9.024;2023-05-09T12:17:01;96085.88;;;18.56;68.78
4012;BME280;2020;48.682;9.024;2023-05-09T12:19:27;96086.31;;;18.53;70.95
4012;BME280;2020;48.682;9.024;2023-05-09T12:21:56;96085.00;;;18.62;73.55
4012;BME280;2020;48.682;9.024;2023-05-09T12:24:23;96074.16;;;18.52;67.75
4012;BME280;2020;48.682;9.024;2023-05-09T12:26:49;96076.84;;;18.70;69.65
4012;BME280;2020;48.682;9.024;2023-05-09T12:29:14;96069.16;;;18.69;68.86
4012;BME280;2020;48.682;9.024;2023-05-09T12:31:41;96060.28;;;18.63;69.15
4012;BME280;2020;48.682;9.024;2023-05-09T12:34:07;96062.28;;;18.68;69.22
4012;BME280;2020;48.682;9.024;2023-05-09T12:36:34;96052.63;;;18.55;70.46
4012;BME280;2020;48.682;9.024;2023-05-09T12:39:01;96055.22;;;18.36;69.28
4012;BME280;2020;48.682;9.024;2023-05-09T12:41:26;96047.47;;;18.41;67.83
4012;BME280;2020;48.682;9.024;2023-05-09T12:43:53;96047.31;;;18.36;67.48
4012;BME280;2020;48.682;9.024;2023-05-09T12:46:20;96044.25;;;18.39;66.26
4012;BME280;2020;48.682;9.024;2023-05-09T12:48:46;96040.63;;;18.59;66.56
4012;BME280;2020;48.682;9.024;2023-05-09T12:51:17;96029.69;;;18.81;66.01
4012;BME280;2020;48.682;9.024;2023-05-09T12:53:43;96022.22;;;18.96;64.25
4012;BME280;2020;48.682;9.024;2023-05-09T12:56:13;96023.72;;;19.11;65.27
4012;BME280;2020;48.682;9.024;2023-05-09T12:58:39;96021.38;;;19.03;64.55
4012;BME280;2020;48.682;9.024;2023-05-09T13:01:11;96017.97;;;18.95;65.95
4012;BME280;2020;48.682;9.024;2023-05-09T13:03:38;96017.38;;;18.93;67.97
4012;BME280;2020;48.682;9.024;2023-05-09T13:06:04;96012.28;;;18.98;65.01
4012;BME280;2020;48.682;9.024;2023-05-09T13:08:34;96012.94;;;18.94;63.84
4012;BME280;2020;48.682;9.024;2023-05-09T13:11:00;96007.38;;;18.83;63.60
4012;BME280;2020;48.682;9.024;2023-05-09T13:13:26;96000.78;;;18.74;63.53
4012;BME280;2020;48.682;9.024;2023-05-09T13:15:53;96002.00;;;18.90;63.74
4012;BME280;2020;48.682;9.024;2023-05-09T13:18:18;95995.22;;;18.82;63.99
4012;BME280;2020;48.682;9.024;2023-05-09T13:20:44;95992.22;;;18.97;63.11
4012;BME280;2020;48.682;9.024;2023-05-09T13:23:10;95988.69;;;18.85;60.94
4012;BME280;2020;48.682;9.024;2023-05-09T13:25:35;95989.69;;;18.65;64.56
4012;BME280;2020;48.682;9.024;2023-05-09T13:28:00;95984.00;;;18.68;63.37
4012;BME280;2020;48.682;9.024;2023-05-09T13:30:26;95983.63;;;18.65;63.16
4012;BME280;2020;48.682;9.024;2023-05-09T13:32:51;95978.56;;;18.45;62.03
4012;BME280;2020;48.682;9.024;2023-05-09T13:35:16;95975.63;;;18.53;61.55
4012;BME280;2020;48.682;9.024;2023-05-09T13:37:42;95970.81;;;18.50;63.47
4012;BME280;2020;48.682;9.024;2023-05-09T13:40:08;95965.88;;;18.53;63.56
4012;BME280;2020;48.682;9.024;2023-05-09T13:42:33;95965.81;;;18.41;62.70
4012;BME280;2020;48.682;9.024;2023-05-09T13:44:59;95970.50;;;18.39;63.42
4012;BME280;2020;48.682;9.024;2023-05-09T13:47:25;95963.19;;;18.41;62.66
4012;BME280;2020;48.682;9.024;2023-05-09T13:49:50;95954.84;;;18.45;62.77